sensor_id;sensor_type;location;lat;lon;timestamp;P1;durP1;ratioP1;P2;durP2;ratioP2
26191;SDS011;13935;55.672;37.764;2022-10-17T00:00:34;12.35;;;7.32;;
26191;SDS011;13935;55.672;37.764;2022-10-17T00:01:36;12.27;;;7.63;;
26191;SDS011;13935;55.672;37.764;2022-10-17T00:02:39;11.25;;;6.95;;
26191;SDS011;13935;55.672;37.764;2022-10-17T00:03:41;14.73;;;7.47;;
26191;SDS011;13935;55.672;37.764;2022-10-17T00:04:43;15.75;;;7.70;;
26191;SDS011;13935;55.672;37.764;2022-10-17T00:05:47;12.90;;;7.63;;
26191;SDS011;13935;55.672;37.764;2022-10-17T00:06:52;12.80;;;7.47;;
26191;SDS011;13935;55.672;37.764;2022-10-17T00:07:58;12.73;;;7.10;;
26191;SDS011;13935;55.672;37.764;2022-10-17T00:09:00;16.23;;;7.50;;
26191;SDS011;13935;55.672;37.764;2022-10-17T00:10:03;11.65;;;7.28;;
26191;SDS011;13935;55.672;37.764;2022-10-17T00:11:15;13.20;;;7.07;;
26191;SDS011;13935;55.672;37.764;2022-10-17T00:12:20;13.35;;;7.43;;
26191;SDS011;13935;55.672;37.764;2022-10-17T00:13:26;12.20;;;7.25;;
26191;SDS011;13935;55.672;37.764;2022-10-17T00:14:30;10.68;;;7.15;;
26191;SDS011;13935;55.672;37.764;2022-10-17T00:15:34;14.50;;;7.18;;
26191;SDS011;13935;55.672;37.764;2022-10-17T00:16:39;12.40;;;7.55;;
26191;SDS011;13935;55.672;37.764;2022-10-17T00:17:44;13.13;;;7.50;;
26191;SDS011;13935;55.672;37.764;2022-10-17T00:18:46;14.40;;;7.53;;
26191;SDS011;13935;55.672;37.764;2022-10-17T00:19:49;13.95;;;7.63;;
26191;SDS011;13935;55.672;37.764;2022-10-17T00:20:51;11.13;;;7.20;;
26191;SDS011;13935;55.672;37.764;2022-10-17T00:21:54;11.15;;;6.65;;
26191;SDS011;13935;55.672;37.764;2022-10-17T00:22:57;9.95;;;7.20;;
26191;SDS011;13935;55.672;37.764;2022-10-17T00:24:00;11.68;;;7.15;;
26191;SDS011;13935;55.672;37.764;2022-10-17T00:25:02;11.55;;;7.30;;
26191;SDS011;13935;55.672;37.764;2022-10-17T00:26:05;12.00;;;7.45;;
26191;SDS011;13935;55.672;37.764;2022-10-17T00:27:08;11.05;;;7.07;;
26191;SDS011;13935;55.672;37.764;2022-10-17T00:28:11;11.07;;;7.22;;
26191;SDS011;13935;55.672;37.764;2022-10-17T00:29:15;12.27;;;7.30;;
26191;SDS011;13935;55.672;37.764;2022-10-17T00:30:19;11.27;;;7.28;;
26191;SDS011;13935;55.672;37.764;2022-10-17T00:31:24;12.18;;;7.70;;
26191;SDS011;13935;55.672;37.764;2022-10-17T00:32:28;12.65;;;7.43;;
26191;SDS011;13935;55.672;37.764;2022-10-17T00:33:31;12.02;;;7.32;;
26191;SDS011;13935;55.672;37.764;2022-10-17T00:34:37;11.77;;;7.57;;
26191;SDS011;13935;55.672;37.764;2022-10-17T00:35:41;12.10;;;7.97;;
26191;SDS011;13935;55.672;37.764;2022-10-17T00:36:44;15.10;;;7.95;;
26191;SDS011;13935;55.672;37.764;2022-10-17T00:37:46;12.48;;;6.97;;
26191;SDS011;13935;55.672;37.764;2022-10-17T00:38:53;14.10;;;8.40;;
26191;SDS011;13935;55.672;37.764;2022-10-17T00:39:57;13.52;;;7.30;;
26191;SDS011;13935;55.672;37.764;2022-10-17T00:41:01;15.88;;;7.72;;
26191;SDS011;13935;55.672;37.764;2022-10-17T00:42:08;11.18;;;7.60;;
26191;SDS011;13935;55.672;37.764;2022-10-17T00:43:16;11.73;;;7.38;;
26191;SDS011;13935;55.672;37.764;2022-10-17T00:45:30;10.52;;;6.88;;
26191;SDS011;13935;55.672;37.764;2022-10-17T00:46:34;11.50;;;6.60;;
26191;SDS011;13935;55.672;37.764;2022-10-17T00:47:38;11.10;;;6.63;;
26191;SDS011;13935;55.672;37.764;2022-10-17T00:48:44;12.27;;;7.47;;
26191;SDS011;13935;55.672;37.764;2022-10-17T00:49:48;10.05;;;6.80;;
26191;SDS011;13935;55.672;37.764;2022-10-17T00:50:51;14.00;;;7.30;;
26191;SDS011;13935;55.672;37.764;2022-10-17T00:52:01;10.55;;;7.32;;
26191;SDS011;13935;55.672;37.764;2022-10-17T00:53:10;12.52;;;7.22;;
26191;SDS011;13935;55.672;37.764;2022-10-17T00:54:14;13.38;;;7.00;;
26191;SDS011;13935;55.672;37.764;2022-10-17T00:55:26;11.35;;;7.18;;
26191;SDS011;13935;55.672;37.764;2022-10-17T00:56:31;11.30;;;7.60;;
26191;SDS011;13935;55.672;37.764;2022-10-17T00:57:35;10.18;;;7.00;;
26191;SDS011;13935;55.672;37.764;2022-10-17T00:58:39;10.32;;;6.90;;
26191;SDS011;13935;55.672;37.764;2022-10-17T00:59:41;17.33;;;7.70;;
26191;SDS011;13935;55.672;37.764;2022-10-17T01:00:49;11.73;;;7.30;;
26191;SDS011;13935;55.672;37.764;2022-10-17T01:01:53;11.25;;;7.00;;
26191;SDS011;13935;55.672;37.764;2022-10-17T01:03:01;12.82;;;6.95;;
26191;SDS011;13935;55.672;37.764;2022-10-17T01:04:04;11.57;;;7.00;;
26191;SDS011;13935;55.672;37.764;2022-10-17T01:05:06;10.63;;;7.22;;
26191;SDS011;13935;55.672;37.764;2022-10-17T01:06:11;12.60;;;7.78;;
26191;SDS011;13935;55.672;37.764;2022-10-17T01:07:13;10.43;;;6.85;;
26191;SDS011;13935;55.672;37.764;2022-10-17T01:08:18;12.25;;;6.97;;
26191;SDS011;13935;55.672;37.764;2022-10-17T01:09:21;13.77;;;7.03;;
26191;SDS011;13935;55.672;37.764;2022-10-17T01:10:26;12.35;;;7.07;;
26191;SDS011;13935;55.672;37.764;2022-10-17T01:11:38;8.88;;;6.70;;
26191;SDS011;13935;55.672;37.764;2022-10-17T01:14:57;13.32;;;7.30;;
26191;SDS011;13935;55.672;37.764;2022-10-17T01:16:08;10.23;;;7.00;;
26191;SDS011;13935;55.672;37.764;2022-10-17T01:20:26;12.38;;;7.30;;
26191;SDS011;13935;55.672;37.764;2022-10-17T01:21:54;11.55;;;7.45;;
26191;SDS011;13935;55.672;37.764;2022-10-17T01:30:43;11.68;;;7.05;;
26191;SDS011;13935;55.672;37.764;2022-10-17T01:31:56;11.50;;;6.95;;
26191;SDS011;13935;55.672;37.764;2022-10-17T01:35:40;13.93;;;6.90;;
26191;SDS011;13935;55.672;37.764;2022-10-17T01:38:03;11.13;;;6.97;;
26191;SDS011;13935;55.672;37.764;2022-10-17T01:39:43;12.80;;;7.18;;
26191;SDS011;13935;55.672;37.764;2022-10-17T01:43:22;13.88;;;7.40;;
26191;SDS011;13935;55.672;37.764;2022-10-17T01:45:00;13.45;;;7.35;;
26191;SDS011;13935;55.672;37.764;2022-10-17T01:46:15;14.15;;;7.90;;
26191;SDS011;13935;55.672;37.764;2022-10-17T01:47:44;15.20;;;7.63;;
26191;SDS011;13935;55.672;37.764;2022-10-17T01:48:51;11.77;;;6.75;;
26191;SDS011;13935;55.672;37.764;2022-10-17T01:49:55;13.20;;;7.80;;
26191;SDS011;13935;55.672;37.764;2022-10-17T01:51:23;11.85;;;7.35;;
26191;SDS011;13935;55.672;37.764;2022-10-17T01:52:34;11.93;;;7.38;;
26191;SDS011;13935;55.672;37.764;2022-10-17T01:53:43;12.85;;;7.60;;
26191;SDS011;13935;55.672;37.764;2022-10-17T01:54:55;13.93;;;8.40;;
26191;SDS011;13935;55.672;37.764;2022-10-17T01:56:05;12.00;;;7.65;;
26191;SDS011;13935;55.672;37.764;2022-10-17T01:57:33;12.30;;;7.43;;
26191;SDS011;13935;55.672;37.764;2022-10-17T01:58:42;12.18;;;7.75;;
26191;SDS011;13935;55.672;37.764;2022-10-17T01:59:51;11.90;;;6.97;;
26191;SDS011;13935;55.672;37.764;2022-10-17T02:00:55;15.98;;;7.93;;
26191;SDS011;13935;55.672;37.764;2022-10-17T02:02:04;14.20;;;7.93;;
26191;SDS011;13935;55.672;37.764;2022-10-17T02:03:08;13.00;;;7.20;;
26191;SDS011;13935;55.672;37.764;2022-10-17T02:04:17;12.13;;;7.10;;
26191;SDS011;13935;55.672;37.764;2022-10-17T02:05:23;13.23;;;7.63;;
26191;SDS011;13935;55.672;37.764;2022-10-17T02:06:35;12.32;;;7.30;;
26191;SDS011;13935;55.672;37.764;2022-10-17T02:07:42;14.65;;;7.88;;
26191;SDS011;13935;55.672;37.764;2022-10-17T02:08:45;16.55;;;7.90;;
26191;SDS011;13935;55.672;37.764;2022-10-17T02:09:49;13.55;;;7.80;;
26191;SDS011;13935;55.672;37.764;2022-10-17T02:12:20;11.40;;;7.78;;
26191;SDS011;13935;55.672;37.764;2022-10-17T02:15:22;13.65;;;8.18;;
26191;SDS011;13935;55.672;37.764;2022-10-17T02:16:56;18.02;;;7.90;;
26191;SDS011;13935;55.672;37.764;2022-10-17T02:22:15;13.90;;;8.90;;
26191;SDS011;13935;55.672;37.764;2022-10-17T02:23:48;13.75;;;8.63;;
26191;SDS011;13935;55.672;37.764;2022-10-17T02:25:05;14.13;;;8.23;;
26191;SDS011;13935;55.672;37.764;2022-10-17T02:26:29;17.42;;;8.32;;
26191;SDS011;13935;55.672;37.764;2022-10-17T02:32:20;16.83;;;8.60;;
26191;SDS011;13935;55.672;37.764;2022-10-17T02:33:31;12.88;;;8.57;;
26191;SDS011;13935;55.672;37.764;2022-10-17T02:34:49;12.00;;;7.68;;
26191;SDS011;13935;55.672;37.764;2022-10-17T02:35:57;14.68;;;8.52;;
26191;SDS011;13935;55.672;37.764;2022-10-17T02:37:06;12.35;;;8.18;;
26191;SDS011;13935;55.672;37.764;2022-10-17T02:38:12;13.35;;;7.85;;
26191;SDS011;13935;55.672;37.764;2022-10-17T02:39:19;17.08;;;8.20;;
26191;SDS011;13935;55.672;37.764;2022-10-17T02:40:24;13.75;;;7.88;;
26191;SDS011;13935;55.672;37.764;2022-10-17T02:41:31;14.40;;;7.95;;
26191;SDS011;13935;55.672;37.764;2022-10-17T02:42:35;15.48;;;8.20;;
26191;SDS011;13935;55.672;37.764;2022-10-17T02:43:47;15.65;;;8.25;;
26191;SDS011;13935;55.672;37.764;2022-10-17T02:44:56;12.82;;;8.35;;
26191;SDS011;13935;55.672;37.764;2022-10-17T02:46:01;12.95;;;7.80;;
26191;SDS011;13935;55.672;37.764;2022-10-17T02:47:08;14.32;;;8.45;;
26191;SDS011;13935;55.672;37.764;2022-10-17T02:48:35;14.90;;;8.82;;
26191;SDS011;13935;55.672;37.764;2022-10-17T02:49:42;14.27;;;7.85;;
26191;SDS011;13935;55.672;37.764;2022-10-17T02:50:55;16.00;;;8.10;;
26191;SDS011;13935;55.672;37.764;2022-10-17T02:52:07;11.88;;;7.95;;
26191;SDS011;13935;55.672;37.764;2022-10-17T02:53:16;15.27;;;8.18;;
26191;SDS011;13935;55.672;37.764;2022-10-17T02:55:45;13.07;;;8.20;;
26191;SDS011;13935;55.672;37.764;2022-10-17T02:57:06;13.65;;;8.32;;
26191;SDS011;13935;55.672;37.764;2022-10-17T02:58:22;14.13;;;8.00;;
26191;SDS011;13935;55.672;37.764;2022-10-17T02:59:33;15.80;;;8.25;;
26191;SDS011;13935;55.672;37.764;2022-10-17T03:00:38;15.63;;;8.35;;
26191;SDS011;13935;55.672;37.764;2022-10-17T03:01:42;14.88;;;8.52;;
26191;SDS011;13935;55.672;37.764;2022-10-17T03:02:47;15.10;;;8.77;;
26191;SDS011;13935;55.672;37.764;2022-10-17T03:05:15;14.15;;;8.02;;
26191;SDS011;13935;55.672;37.764;2022-10-17T03:06:20;12.68;;;7.93;;
26191;SDS011;13935;55.672;37.764;2022-10-17T03:07:22;15.48;;;8.82;;
26191;SDS011;13935;55.672;37.764;2022-10-17T03:08:26;12.50;;;7.97;;
26191;SDS011;13935;55.672;37.764;2022-10-17T03:09:29;15.07;;;8.48;;
26191;SDS011;13935;55.672;37.764;2022-10-17T03:10:31;16.63;;;7.90;;
26191;SDS011;13935;55.672;37.764;2022-10-17T03:11:33;17.33;;;8.50;;
26191;SDS011;13935;55.672;37.764;2022-10-17T03:12:35;15.77;;;8.63;;
26191;SDS011;13935;55.672;37.764;2022-10-17T03:13:39;13.00;;;7.72;;
26191;SDS011;13935;55.672;37.764;2022-10-17T03:14:41;12.82;;;8.25;;
26191;SDS011;13935;55.672;37.764;2022-10-17T03:15:44;13.85;;;7.82;;
26191;SDS011;13935;55.672;37.764;2022-10-17T03:16:47;12.75;;;7.90;;
26191;SDS011;13935;55.672;37.764;2022-10-17T03:17:51;12.10;;;7.80;;
26191;SDS011;13935;55.672;37.764;2022-10-17T03:18:54;10.45;;;7.45;;
26191;SDS011;13935;55.672;37.764;2022-10-17T03:19:56;15.27;;;8.45;;
26191;SDS011;13935;55.672;37.764;2022-10-17T03:20:58;12.80;;;7.85;;
26191;SDS011;13935;55.672;37.764;2022-10-17T03:22:00;13.43;;;8.73;;
26191;SDS011;13935;55.672;37.764;2022-10-17T03:23:05;14.43;;;8.63;;
26191;SDS011;13935;55.672;37.764;2022-10-17T03:24:07;15.68;;;8.40;;
26191;SDS011;13935;55.672;37.764;2022-10-17T03:25:12;20.00;;;8.85;;
26191;SDS011;13935;55.672;37.764;2022-10-17T03:26:15;17.45;;;9.40;;
26191;SDS011;13935;55.672;37.764;2022-10-17T03:27:17;12.90;;;8.18;;
26191;SDS011;13935;55.672;37.764;2022-10-17T03:28:19;14.65;;;8.18;;
26191;SDS011;13935;55.672;37.764;2022-10-17T03:29:23;14.00;;;8.05;;
26191;SDS011;13935;55.672;37.764;2022-10-17T03:30:28;14.25;;;8.30;;
26191;SDS011;13935;55.672;37.764;2022-10-17T03:31:33;15.38;;;8.20;;
26191;SDS011;13935;55.672;37.764;2022-10-17T03:32:36;12.90;;;7.63;;
26191;SDS011;13935;55.672;37.764;2022-10-17T03:33:39;13.80;;;8.32;;
26191;SDS011;13935;55.672;37.764;2022-10-17T03:34:41;12.95;;;7.50;;
26191;SDS011;13935;55.672;37.764;2022-10-17T03:35:45;11.68;;;7.65;;
26191;SDS011;13935;55.672;37.764;2022-10-17T03:36:47;15.77;;;8.57;;
26191;SDS011;13935;55.672;37.764;2022-10-17T03:37:49;11.95;;;8.05;;
26191;SDS011;13935;55.672;37.764;2022-10-17T03:38:53;12.73;;;7.80;;
26191;SDS011;13935;55.672;37.764;2022-10-17T03:39:56;15.57;;;8.40;;
26191;SDS011;13935;55.672;37.764;2022-10-17T03:40:59;15.45;;;8.13;;
26191;SDS011;13935;55.672;37.764;2022-10-17T03:42:01;16.85;;;8.13;;
26191;SDS011;13935;55.672;37.764;2022-10-17T03:43:05;13.40;;;8.27;;
26191;SDS011;13935;55.672;37.764;2022-10-17T03:44:08;15.38;;;8.30;;
26191;SDS011;13935;55.672;37.764;2022-10-17T03:45:10;17.92;;;8.25;;
26191;SDS011;13935;55.672;37.764;2022-10-17T03:46:12;13.60;;;8.02;;
26191;SDS011;13935;55.672;37.764;2022-10-17T03:47:14;14.80;;;7.97;;
26191;SDS011;13935;55.672;37.764;2022-10-17T03:48:17;13.68;;;8.85;;
26191;SDS011;13935;55.672;37.764;2022-10-17T03:49:19;13.80;;;7.82;;
26191;SDS011;13935;55.672;37.764;2022-10-17T03:50:22;13.32;;;8.68;;
26191;SDS011;13935;55.672;37.764;2022-10-17T03:51:25;13.90;;;8.35;;
26191;SDS011;13935;55.672;37.764;2022-10-17T03:52:35;13.35;;;8.60;;
26191;SDS011;13935;55.672;37.764;2022-10-17T03:53:37;15.43;;;8.40;;
26191;SDS011;13935;55.672;37.764;2022-10-17T03:54:40;12.27;;;8.40;;
26191;SDS011;13935;55.672;37.764;2022-10-17T03:55:42;13.70;;;8.10;;
26191;SDS011;13935;55.672;37.764;2022-10-17T03:56:45;15.38;;;8.75;;
26191;SDS011;13935;55.672;37.764;2022-10-17T03:57:51;17.65;;;8.98;;
26191;SDS011;13935;55.672;37.764;2022-10-17T03:58:54;18.02;;;8.35;;
26191;SDS011;13935;55.672;37.764;2022-10-17T03:59:57;12.35;;;8.10;;
26191;SDS011;13935;55.672;37.764;2022-10-17T04:01:02;13.45;;;8.07;;
26191;SDS011;13935;55.672;37.764;2022-10-17T04:02:08;11.07;;;7.88;;
26191;SDS011;13935;55.672;37.764;2022-10-17T04:03:11;11.75;;;7.50;;
26191;SDS011;13935;55.672;37.764;2022-10-17T04:04:18;13.52;;;8.38;;
26191;SDS011;13935;55.672;37.764;2022-10-17T04:05:20;19.00;;;8.77;;
26191;SDS011;13935;55.672;37.764;2022-10-17T04:06:22;16.23;;;8.95;;
26191;SDS011;13935;55.672;37.764;2022-10-17T04:07:24;12.35;;;8.02;;
26191;SDS011;13935;55.672;37.764;2022-10-17T04:08:26;16.70;;;8.18;;
26191;SDS011;13935;55.672;37.764;2022-10-17T04:09:38;16.05;;;9.13;;
26191;SDS011;13935;55.672;37.764;2022-10-17T04:11:02;18.58;;;9.30;;
26191;SDS011;13935;55.672;37.764;2022-10-17T04:12:06;14.30;;;8.25;;
26191;SDS011;13935;55.672;37.764;2022-10-17T04:13:10;16.42;;;8.70;;
26191;SDS011;13935;55.672;37.764;2022-10-17T04:14:14;15.70;;;8.65;;
26191;SDS011;13935;55.672;37.764;2022-10-17T04:15:18;14.02;;;8.13;;
26191;SDS011;13935;55.672;37.764;2022-10-17T04:17:24;15.43;;;8.50;;
26191;SDS011;13935;55.672;37.764;2022-10-17T04:18:28;17.98;;;8.93;;
26191;SDS011;13935;55.672;37.764;2022-10-17T04:19:31;15.15;;;8.85;;
26191;SDS011;13935;55.672;37.764;2022-10-17T04:20:33;21.92;;;9.40;;
26191;SDS011;13935;55.672;37.764;2022-10-17T04:21:37;16.20;;;8.32;;
26191;SDS011;13935;55.672;37.764;2022-10-17T04:22:41;16.60;;;8.95;;
26191;SDS011;13935;55.672;37.764;2022-10-17T04:23:44;17.00;;;8.35;;
26191;SDS011;13935;55.672;37.764;2022-10-17T04:25:01;15.25;;;9.05;;
26191;SDS011;13935;55.672;37.764;2022-10-17T04:26:13;18.95;;;8.15;;
26191;SDS011;13935;55.672;37.764;2022-10-17T04:27:15;15.10;;;8.02;;
26191;SDS011;13935;55.672;37.764;2022-10-17T04:28:19;16.60;;;8.32;;
26191;SDS011;13935;55.672;37.764;2022-10-17T04:29:23;14.48;;;8.20;;
26191;SDS011;13935;55.672;37.764;2022-10-17T04:30:30;14.50;;;8.25;;
26191;SDS011;13935;55.672;37.764;2022-10-17T04:31:32;17.77;;;8.15;;
26191;SDS011;13935;55.672;37.764;2022-10-17T04:32:44;15.68;;;8.80;;
26191;SDS011;13935;55.672;37.764;2022-10-17T04:33:52;13.68;;;7.85;;
26191;SDS011;13935;55.672;37.764;2022-10-17T04:34:55;17.00;;;9.10;;
26191;SDS011;13935;55.672;37.764;2022-10-17T04:36:02;13.93;;;8.10;;
26191;SDS011;13935;55.672;37.764;2022-10-17T04:37:10;13.15;;;8.98;;
26191;SDS011;13935;55.672;37.764;2022-10-17T04:38:12;15.75;;;9.02;;
26191;SDS011;13935;55.672;37.764;2022-10-17T04:39:14;17.23;;;9.20;;
26191;SDS011;13935;55.672;37.764;2022-10-17T04:40:17;17.17;;;9.15;;
26191;SDS011;13935;55.672;37.764;2022-10-17T04:41:20;16.95;;;9.43;;
26191;SDS011;13935;55.672;37.764;2022-10-17T04:42:22;14.55;;;9.50;;
26191;SDS011;13935;55.672;37.764;2022-10-17T04:43:27;16.60;;;9.13;;
26191;SDS011;13935;55.672;37.764;2022-10-17T04:44:33;14.40;;;9.02;;
26191;SDS011;13935;55.672;37.764;2022-10-17T04:45:36;16.10;;;8.98;;
26191;SDS011;13935;55.672;37.764;2022-10-17T04:46:39;13.95;;;8.27;;
26191;SDS011;13935;55.672;37.764;2022-10-17T04:47:41;15.05;;;8.55;;
26191;SDS011;13935;55.672;37.764;2022-10-17T04:48:43;14.80;;;8.75;;
26191;SDS011;13935;55.672;37.764;2022-10-17T04:49:46;14.52;;;8.68;;
26191;SDS011;13935;55.672;37.764;2022-10-17T04:50:56;13.18;;;8.50;;
26191;SDS011;13935;55.672;37.764;2022-10-17T04:52:10;19.05;;;10.13;;
26191;SDS011;13935;55.672;37.764;2022-10-17T04:53:21;17.42;;;8.98;;
26191;SDS011;13935;55.672;37.764;2022-10-17T04:54:24;16.08;;;8.88;;
26191;SDS011;13935;55.672;37.764;2022-10-17T04:55:37;15.50;;;8.32;;
26191;SDS011;13935;55.672;37.764;2022-10-17T04:56:40;17.27;;;9.07;;
26191;SDS011;13935;55.672;37.764;2022-10-17T04:57:42;14.50;;;9.23;;
26191;SDS011;13935;55.672;37.764;2022-10-17T04:58:52;15.95;;;9.02;;
26191;SDS011;13935;55.672;37.764;2022-10-17T04:59:56;17.25;;;9.88;;
26191;SDS011;13935;55.672;37.764;2022-10-17T05:01:18;19.00;;;8.68;;
26191;SDS011;13935;55.672;37.764;2022-10-17T05:02:27;18.95;;;9.50;;
26191;SDS011;13935;55.672;37.764;2022-10-17T05:03:29;17.55;;;8.68;;
26191;SDS011;13935;55.672;37.764;2022-10-17T05:04:32;15.07;;;8.98;;
26191;SDS011;13935;55.672;37.764;2022-10-17T05:05:37;16.45;;;8.55;;
26191;SDS011;13935;55.672;37.764;2022-10-17T05:06:40;13.60;;;8.73;;
26191;SDS011;13935;55.672;37.764;2022-10-17T05:08:02;15.75;;;9.32;;
26191;SDS011;13935;55.672;37.764;2022-10-17T05:09:06;17.48;;;9.52;;
26191;SDS011;13935;55.672;37.764;2022-10-17T05:10:10;15.60;;;9.00;;
26191;SDS011;13935;55.672;37.764;2022-10-17T05:11:18;16.88;;;8.95;;
26191;SDS011;13935;55.672;37.764;2022-10-17T05:12:23;17.33;;;8.80;;
26191;SDS011;13935;55.672;37.764;2022-10-17T05:13:27;15.27;;;8.55;;
26191;SDS011;13935;55.672;37.764;2022-10-17T05:14:30;16.25;;;8.75;;
26191;SDS011;13935;55.672;37.764;2022-10-17T05:15:32;15.32;;;9.13;;
26191;SDS011;13935;55.672;37.764;2022-10-17T05:16:36;14.48;;;9.52;;
26191;SDS011;13935;55.672;37.764;2022-10-17T05:17:38;13.45;;;8.20;;
26191;SDS011;13935;55.672;37.764;2022-10-17T05:18:40;15.45;;;9.57;;
26191;SDS011;13935;55.672;37.764;2022-10-17T05:19:43;15.02;;;9.32;;
26191;SDS011;13935;55.672;37.764;2022-10-17T05:20:46;20.98;;;10.15;;
26191;SDS011;13935;55.672;37.764;2022-10-17T05:21:48;15.90;;;8.85;;
26191;SDS011;13935;55.672;37.764;2022-10-17T05:22:50;15.45;;;9.52;;
26191;SDS011;13935;55.672;37.764;2022-10-17T05:23:52;16.08;;;8.55;;
26191;SDS011;13935;55.672;37.764;2022-10-17T05:24:56;16.40;;;9.35;;
26191;SDS011;13935;55.672;37.764;2022-10-17T05:25:58;19.42;;;9.73;;
26191;SDS011;13935;55.672;37.764;2022-10-17T05:27:00;16.83;;;9.20;;
26191;SDS011;13935;55.672;37.764;2022-10-17T05:28:02;16.02;;;10.10;;
26191;SDS011;13935;55.672;37.764;2022-10-17T05:29:07;16.35;;;8.95;;
26191;SDS011;13935;55.672;37.764;2022-10-17T05:30:17;17.38;;;9.68;;
26191;SDS011;13935;55.672;37.764;2022-10-17T05:31:24;16.90;;;9.60;;
26191;SDS011;13935;55.672;37.764;2022-10-17T05:32:26;19.23;;;9.30;;
26191;SDS011;13935;55.672;37.764;2022-10-17T05:33:29;16.65;;;9.23;;
26191;SDS011;13935;55.672;37.764;2022-10-17T05:34:35;17.90;;;9.43;;
26191;SDS011;13935;55.672;37.764;2022-10-17T05:35:40;17.77;;;9.60;;
26191;SDS011;13935;55.672;37.764;2022-10-17T05:36:42;15.77;;;8.88;;
26191;SDS011;13935;55.672;37.764;2022-10-17T05:37:45;15.70;;;9.30;;
26191;SDS011;13935;55.672;37.764;2022-10-17T05:38:49;17.00;;;9.90;;
26191;SDS011;13935;55.672;37.764;2022-10-17T05:39:55;17.83;;;9.85;;
26191;SDS011;13935;55.672;37.764;2022-10-17T05:40:59;17.17;;;9.77;;
26191;SDS011;13935;55.672;37.764;2022-10-17T05:42:06;17.27;;;9.82;;
26191;SDS011;13935;55.672;37.764;2022-10-17T05:43:09;17.85;;;9.93;;
26191;SDS011;13935;55.672;37.764;2022-10-17T05:44:11;16.13;;;9.18;;
26191;SDS011;13935;55.672;37.764;2022-10-17T05:45:18;15.10;;;9.82;;
26191;SDS011;13935;55.672;37.764;2022-10-17T05:46:22;18.58;;;9.48;;
26191;SDS011;13935;55.672;37.764;2022-10-17T05:47:25;15.68;;;9.30;;
26191;SDS011;13935;55.672;37.764;2022-10-17T05:48:28;14.68;;;8.80;;
26191;SDS011;13935;55.672;37.764;2022-10-17T05:49:31;12.85;;;8.48;;
26191;SDS011;13935;55.672;37.764;2022-10-17T05:50:56;15.35;;;8.80;;
26191;SDS011;13935;55.672;37.764;2022-10-17T05:51:59;14.63;;;9.43;;
26191;SDS011;13935;55.672;37.764;2022-10-17T05:53:06;16.77;;;9.25;;
26191;SDS011;13935;55.672;37.764;2022-10-17T05:54:14;20.15;;;10.20;;
26191;SDS011;13935;55.672;37.764;2022-10-17T05:55:17;15.05;;;8.90;;
26191;SDS011;13935;55.672;37.764;2022-10-17T05:56:19;14.63;;;8.88;;
26191;SDS011;13935;55.672;37.764;2022-10-17T05:57:26;17.35;;;8.90;;
26191;SDS011;13935;55.672;37.764;2022-10-17T05:58:30;16.63;;;8.50;;
26191;SDS011;13935;55.672;37.764;2022-10-17T06:00:03;18.20;;;8.90;;
26191;SDS011;13935;55.672;37.764;2022-10-17T06:01:14;14.77;;;8.73;;
26191;SDS011;13935;55.672;37.764;2022-10-17T06:02:17;18.65;;;8.45;;
26191;SDS011;13935;55.672;37.764;2022-10-17T06:03:20;14.68;;;8.80;;
26191;SDS011;13935;55.672;37.764;2022-10-17T06:04:22;15.15;;;8.57;;
26191;SDS011;13935;55.672;37.764;2022-10-17T06:05:24;15.73;;;8.70;;
26191;SDS011;13935;55.672;37.764;2022-10-17T06:06:27;14.05;;;8.32;;
26191;SDS011;13935;55.672;37.764;2022-10-17T06:07:30;17.60;;;9.23;;
26191;SDS011;13935;55.672;37.764;2022-10-17T06:08:33;13.38;;;8.52;;
26191;SDS011;13935;55.672;37.764;2022-10-17T06:09:35;15.27;;;8.68;;
26191;SDS011;13935;55.672;37.764;2022-10-17T06:10:37;18.77;;;8.85;;
26191;SDS011;13935;55.672;37.764;2022-10-17T06:11:39;16.52;;;8.90;;
26191;SDS011;13935;55.672;37.764;2022-10-17T06:12:42;17.77;;;9.00;;
26191;SDS011;13935;55.672;37.764;2022-10-17T06:13:44;17.27;;;9.07;;
26191;SDS011;13935;55.672;37.764;2022-10-17T06:14:53;14.98;;;9.30;;
26191;SDS011;13935;55.672;37.764;2022-10-17T06:15:56;16.30;;;9.00;;
26191;SDS011;13935;55.672;37.764;2022-10-17T06:16:59;15.10;;;9.15;;
26191;SDS011;13935;55.672;37.764;2022-10-17T06:18:01;14.50;;;8.70;;
26191;SDS011;13935;55.672;37.764;2022-10-17T06:19:06;16.73;;;8.98;;
26191;SDS011;13935;55.672;37.764;2022-10-17T06:20:08;16.30;;;8.80;;
26191;SDS011;13935;55.672;37.764;2022-10-17T06:21:11;14.40;;;8.52;;
26191;SDS011;13935;55.672;37.764;2022-10-17T06:22:20;16.25;;;9.15;;
26191;SDS011;13935;55.672;37.764;2022-10-17T06:23:23;16.92;;;9.23;;
26191;SDS011;13935;55.672;37.764;2022-10-17T06:24:30;17.38;;;9.65;;
26191;SDS011;13935;55.672;37.764;2022-10-17T06:25:36;15.85;;;8.52;;
26191;SDS011;13935;55.672;37.764;2022-10-17T06:26:41;14.70;;;8.48;;
26191;SDS011;13935;55.672;37.764;2022-10-17T06:27:46;17.80;;;9.30;;
26191;SDS011;13935;55.672;37.764;2022-10-17T06:28:48;16.50;;;9.13;;
26191;SDS011;13935;55.672;37.764;2022-10-17T06:29:50;17.80;;;9.40;;
26191;SDS011;13935;55.672;37.764;2022-10-17T06:30:54;24.33;;;8.98;;
26191;SDS011;13935;55.672;37.764;2022-10-17T06:31:57;17.40;;;9.07;;
26191;SDS011;13935;55.672;37.764;2022-10-17T06:33:00;16.08;;;8.57;;
26191;SDS011;13935;55.672;37.764;2022-10-17T06:34:02;19.00;;;9.55;;
26191;SDS011;13935;55.672;37.764;2022-10-17T06:35:07;16.75;;;9.30;;
26191;SDS011;13935;55.672;37.764;2022-10-17T06:36:10;21.52;;;9.02;;
26191;SDS011;13935;55.672;37.764;2022-10-17T06:37:15;16.00;;;8.40;;
26191;SDS011;13935;55.672;37.764;2022-10-17T06:38:19;16.33;;;8.52;;
26191;SDS011;13935;55.672;37.764;2022-10-17T06:39:23;16.98;;;8.95;;
26191;SDS011;13935;55.672;37.764;2022-10-17T06:40:36;15.75;;;8.48;;
26191;SDS011;13935;55.672;37.764;2022-10-17T06:41:39;14.35;;;8.30;;
26191;SDS011;13935;55.672;37.764;2022-10-17T06:42:45;18.05;;;8.55;;
26191;SDS011;13935;55.672;37.764;2022-10-17T06:44:07;19.00;;;9.25;;
26191;SDS011;13935;55.672;37.764;2022-10-17T06:45:39;15.70;;;8.63;;
26191;SDS011;13935;55.672;37.764;2022-10-17T06:47:03;20.85;;;8.95;;
26191;SDS011;13935;55.672;37.764;2022-10-17T06:48:06;21.08;;;9.07;;
26191;SDS011;13935;55.672;37.764;2022-10-17T06:49:29;20.90;;;9.30;;
26191;SDS011;13935;55.672;37.764;2022-10-17T06:50:58;15.90;;;8.10;;
26191;SDS011;13935;55.672;37.764;2022-10-17T06:52:01;19.10;;;8.75;;
26191;SDS011;13935;55.672;37.764;2022-10-17T06:53:26;15.77;;;8.23;;
26191;SDS011;13935;55.672;37.764;2022-10-17T06:55:01;18.35;;;8.80;;
26191;SDS011;13935;55.672;37.764;2022-10-17T06:56:35;19.38;;;8.57;;
26191;SDS011;13935;55.672;37.764;2022-10-17T06:57:55;15.75;;;8.68;;
26191;SDS011;13935;55.672;37.764;2022-10-17T06:59:30;18.73;;;8.00;;
26191;SDS011;13935;55.672;37.764;2022-10-17T07:00:38;18.73;;;9.02;;
26191;SDS011;13935;55.672;37.764;2022-10-17T07:01:44;13.25;;;7.88;;
26191;SDS011;13935;55.672;37.764;2022-10-17T07:02:50;20.30;;;8.95;;
26191;SDS011;13935;55.672;37.764;2022-10-17T07:03:54;15.98;;;8.50;;
26191;SDS011;13935;55.672;37.764;2022-10-17T07:04:56;16.15;;;7.97;;
26191;SDS011;13935;55.672;37.764;2022-10-17T07:05:58;14.30;;;7.55;;